Time;durP1;ratioP1;P1;durP2;ratioP2;P2;SDS_P1;SDS_P2;PMS_P1;PMS_P2;Temp;Humidity;BMP_temperature;BMP_pressure;BME280_temperature;BME280_humidity;BME280_pressure;Samples;Min_cycle;Max_cycle;Signal;HPM_P1;HPM_P2
2023/02/02 00:00:52;;;;;;;4.83;2.00;;;;;;;5.98;67.44;99470.84;4973494;28;97237;-85
2023/02/02 00:03:18;;;;;;;7.73;1.97;;;;;;;5.96;67.41;99464.81;4971598;28;97616;-85
2023/02/02 00:05:45;;;;;;;7.40;1.67;;;;;;;5.94;67.18;99471.00;4989019;28;97905;-84
2023/02/02 00:08:11;;;;;;;11.37;2.40;;;;;;;5.67;67.03;99430.03;4987974;28;97615;-84
2023/02/02 00:10:44;;;;;;;8.40;2.00;;;;;;;5.89;67.17;99464.13;4954045;28;97398;-84
2023/02/02 00:13:14;;;;;;;7.80;1.93;;;;;;;5.90;67.49;99467.56;4959181;28;96944;-85
2023/02/02 00:15:44;;;;;;;7.40;2.37;;;;;;;5.96;67.27;99474.41;4954605;28;97886;-84
2023/02/02 00:18:13;;;;;;;6.23;2.00;;;;;;;5.93;67.09;99453.59;4978651;28;97738;-84
2023/02/02 00:20:43;;;;;;;5.57;1.57;;;;;;;5.78;66.96;99431.47;4968526;28;96763;-85
2023/02/02 00:23:12;;;;;;;8.43;2.33;;;;;;;5.73;66.82;99438.53;4956522;28;96970;-85
2023/02/02 00:25:42;;;;;;;8.57;2.67;;;;;;;5.86;67.02;99459.00;4960152;28;96841;-83
2023/02/02 00:28:08;;;;;;;11.37;2.73;;;;;;;5.77;67.18;99441.03;4988634;28;98116;-85
2023/02/02 00:30:33;;;;;;;9.77;2.33;;;;;;;5.72;66.68;99436.84;4959154;28;96758;-84
2023/02/02 00:32:59;;;;;;;8.20;2.37;;;;;;;5.79;66.79;99440.97;4954741;28;97165;-83
2023/02/02 00:35:25;;;;;;;11.37;2.47;;;;;;;5.74;66.73;99430.69;4965478;28;99962;-84
2023/02/02 00:37:50;;;;;;;10.60;2.03;;;;;;;5.78;66.89;99442.72;4984027;28;98024;-84
2023/02/02 00:40:16;;;;;;;9.53;2.40;;;;;;;5.60;66.71;99412.84;4962181;28;97205;-84
2023/02/02 00:42:47;;;;;;;8.00;2.17;;;;;;;5.80;66.71;99461.78;4990112;28;97390;-84
2023/02/02 00:45:16;;;;;;;9.13;3.23;;;;;;;5.75;66.99;99452.38;4973170;28;101427;-84
2023/02/02 00:47:43;;;;;;;7.03;2.17;;;;;;;5.87;66.66;99465.06;4960588;28;100953;-84
2023/02/02 00:50:11;;;;;;;8.63;2.37;;;;;;;5.87;66.63;99465.06;4952568;28;97208;-85
2023/02/02 00:52:38;;;;;;;8.47;3.10;;;;;;;5.87;66.36;99463.28;4967420;28;97996;-85
2023/02/02 00:55:04;;;;;;;7.60;2.23;;;;;;;5.76;66.14;99454.09;4969898;28;101918;-85
2023/02/02 00:57:29;;;;;;;10.03;2.07;;;;;;;5.74;66.39;99445.47;4963711;28;101089;-85
2023/02/02 00:59:55;;;;;;;11.87;2.03;;;;;;;5.85;66.06;99472.09;4961022;28;96715;-87
2023/02/02 01:02:20;;;;;;;8.30;2.57;;;;;;;5.85;65.54;99469.47;4973451;28;96911;-85
2023/02/02 01:04:46;;;;;;;9.77;2.40;;;;;;;5.83;66.06;99472.09;4975807;28;97977;-85
2023/02/02 01:07:11;;;;;;;9.77;2.40;;;;;;;5.85;65.91;99478.13;4954173;28;101831;-85
2023/02/02 01:09:37;;;;;;;9.13;2.10;;;;;;;5.86;65.64;99473.78;4969445;28;97183;-85
2023/02/02 01:12:03;;;;;;;8.53;2.07;;;;;;;5.90;65.96;99478.00;4973517;28;97131;-85
2023/02/02 01:14:29;;;;;;;7.87;1.90;;;;;;;5.92;65.72;99483.16;4965161;28;99733;-85
2023/02/02 01:16:54;;;;;;;10.87;2.77;;;;;;;5.94;65.32;99479.66;4974988;28;101249;-86
2023/02/02 01:19:20;;;;;;;10.13;2.50;;;;;;;5.87;65.14;99467.66;4990060;28;96884;-85
2023/02/02 01:21:45;;;;;;;11.77;2.53;;;;;;;5.97;65.07;99478.72;4972800;28;96826;-85
2023/02/02 01:24:11;;;;;;;10.60;2.87;;;;;;;5.98;65.00;99483.03;4956682;28;101762;-85
2023/02/02 01:26:37;;;;;;;11.40;2.63;;;;;;;5.95;64.87;99483.13;5008620;28;101395;-85
2023/02/02 01:29:02;;;;;;;9.60;2.23;;;;;;;5.92;65.13;99481.41;4958685;28;97314;-86
2023/02/02 01:31:28;;;;;;;13.27;2.53;;;;;;;5.92;65.08;99491.84;4994827;28;97070;-85
2023/02/02 01:33:54;;;;;;;9.37;2.10;;;;;;;5.91;64.79;99482.31;4957276;28;101337;-87
2023/02/02 01:36:21;;;;;;;7.97;2.10;;;;;;;5.97;64.70;99492.59;4976063;28;98716;-84
2023/02/02 01:38:47;;;;;;;5.67;1.93;;;;;;;5.88;64.83;99472.84;4959596;28;97125;-83
2023/02/02 01:41:15;;;;;;;13.37;2.07;;;;;;;5.87;64.60;99481.53;4974880;28;96796;-84
2023/02/02 01:43:44;;;;;;;12.07;2.20;;;;;;;5.97;64.59;99491.75;4955270;28;101230;-84
2023/02/02 01:46:17;;;;;;;8.07;2.27;;;;;;;5.86;64.42;99465.97;4962551;28;101704;-84
2023/02/02 01:48:46;;;;;;;10.80;2.10;;;;;;;5.94;64.58;99471.00;4989003;28;96944;-84
2023/02/02 01:51:15;;;;;;;11.83;2.40;;;;;;;5.69;64.18;99437.78;4988243;28;97159;-84
2023/02/02 01:53:42;;;;;;;8.20;2.03;;;;;;;5.97;64.24;99483.94;4972283;28;100731;-84
2023/02/02 01:56:09;;;;;;;13.10;2.30;;;;;;;5.94;63.93;99477.06;5002157;28;101314;-84
2023/02/02 01:58:37;;;;;;;8.10;2.37;;;;;;;5.92;64.41;99478.81;4985909;28;96685;-85
2023/02/02 02:01:03;;;;;;;8.10;2.07;;;;;;;5.91;64.36;99471.91;4959125;28;97271;-85
2023/02/02 02:03:31;;;;;;;7.23;2.07;;;;;;;5.84;63.92;99452.97;4958561;28;102098;-84
2023/02/02 02:06:10;;;;;;;10.93;1.90;;;;;;;5.95;64.20;99476.16;4975580;28;97916;-84
2023/02/02 02:08:46;;;;;;;8.35;1.83;;;;;;;5.94;63.92;99473.59;4975197;28;96855;-84
2023/02/02 02:11:12;;;;;;;9.10;2.03;;;;;;;5.68;64.06;99434.34;4959876;28;97147;-84
2023/02/02 02:16:26;;;;;;;11.87;2.47;;;;;;;6.02;64.20;99474.22;4980202;28;97459;-84
2023/02/02 02:19:08;;;;;;;9.10;2.37;;;;;;;6.01;63.55;99475.97;4974974;28;97387;-84
2023/02/02 02:28:12;;;;;;;6.93;1.80;;;;;;;5.92;63.60;99444.94;4990077;28;102135;-84
2023/02/02 02:30:55;;;;;;;7.67;1.80;;;;;;;6.02;63.81;99464.66;4991159;28;96952;-84
2023/02/02 02:33:29;;;;;;;8.67;1.80;;;;;;;5.99;63.83;99454.34;5002862;28;97291;-85
2023/02/02 02:36:25;;;;;;;6.03;1.87;;;;;;;6.02;63.59;99458.59;5007410;28;101532;-85
2023/02/02 02:39:09;;;;;;;10.13;2.20;;;;;;;6.00;63.06;99455.19;4974915;28;101405;-84
2023/02/02 02:41:40;;;;;;;11.30;2.30;;;;;;;5.99;63.54;99461.28;4962703;28;96859;-85
2023/02/02 02:44:09;;;;;;;7.45;1.83;;;;;;;6.00;63.46;99461.25;4972341;28;97077;-85
2023/02/02 02:46:36;;;;;;;9.87;1.77;;;;;;;6.00;63.09;99463.00;4974547;28;101185;-85
2023/02/02 02:49:02;;;;;;;6.57;1.80;;;;;;;5.95;63.31;99446.66;4955133;28;100246;-84
2023/02/02 02:51:50;;;;;;;10.40;2.33;;;;;;;5.99;63.33;99456.06;4989439;28;97156;-84
2023/02/02 02:54:32;;;;;;;14.97;3.90;;;;;;;6.00;63.26;99458.63;4967176;28;97327;-85
2023/02/02 02:57:38;;;;;;;7.63;1.90;;;;;;;6.02;63.11;99449.03;4976483;28;100544;-87
2023/02/02 03:00:29;;;;;;;9.43;1.83;;;;;;;6.04;63.26;99452.44;4969275;28;101494;-85
2023/02/02 03:03:14;;;;;;;10.73;2.57;;;;;;;6.05;63.41;99446.34;4975013;28;97187;-85
2023/02/02 03:05:59;;;;;;;9.33;1.87;;;;;;;6.05;63.07;99445.47;4979159;28;97582;-85
2023/02/02 03:08:36;;;;;;;5.53;1.83;;;;;;;6.05;63.12;99446.34;4973713;28;100136;-85
2023/02/02 03:11:04;;;;;;;9.57;2.67;;;;;;;6.03;63.09;99442.91;4971251;28;101132;-85
2023/02/02 03:13:30;;;;;;;10.90;2.23;;;;;;;6.01;62.79;99438.66;4987248;28;96816;-85
2023/02/02 03:15:56;;;;;;;7.03;2.10;;;;;;;6.06;63.03;99434.16;4992560;28;96896;-84
2023/02/02 03:18:24;;;;;;;11.63;2.33;;;;;;;6.00;62.67;99418.72;4974242;28;97646;-85
2023/02/02 03:20:49;;;;;;;9.40;1.93;;;;;;;5.92;62.88;99420.66;4975446;28;101225;-85
2023/02/02 03:23:15;;;;;;;8.70;2.33;;;;;;;6.08;62.84;99430.63;4986787;28;99941;-86
2023/02/02 03:25:41;;;;;;;10.63;1.80;;;;;;;6.05;62.77;99419.41;4987711;28;97117;-86
2023/02/02 03:28:06;;;;;;;10.80;2.23;;;;;;;6.04;62.44;99418.56;4970798;28;101681;-86
2023/02/02 03:30:33;;;;;;;8.67;2.13;;;;;;;5.91;62.36;99396.38;4974980;28;101314;-85
2023/02/02 03:32:59;;;;;;;9.20;2.43;;;;;;;5.93;62.29;99396.31;4958424;28;97317;-86
2023/02/02 03:35:25;;;;;;;11.90;2.30;;;;;;;5.96;62.28;99402.28;4958409;28;96881;-85
2023/02/02 03:37:50;;;;;;;7.83;2.03;;;;;;;5.78;61.68;99372.41;4974582;28;101285;-85
2023/02/02 03:40:16;;;;;;;6.27;1.97;;;;;;;5.91;61.90;99388.53;4987350;28;97886;-84
2023/02/02 03:42:42;;;;;;;7.37;1.87;;;;;;;5.88;61.84;99373.00;4964398;28;97271;-86
2023/02/02 03:45:08;;;;;;;10.03;1.90;;;;;;;5.98;61.69;99392.69;4974600;28;96938;-83
2023/02/02 03:47:34;;;;;;;11.60;2.87;;;;;;;6.03;61.50;99396.03;4955966;28;101107;-83
2023/02/02 03:49:59;;;;;;;13.07;2.20;;;;;;;6.02;61.78;99393.44;4957429;28;101648;-86
2023/02/02 03:52:25;;;;;;;7.20;2.10;;;;;;;6.03;61.84;99392.56;4944016;28;96920;-84
2023/02/02 03:54:50;;;;;;;10.63;2.08;;;;;;;6.04;61.54;99386.44;4954989;28;96930;-83
2023/02/02 03:57:16;;;;;;;10.00;2.27;;;;;;;5.99;61.67;99388.34;4971443;28;101800;-86
2023/02/02 03:59:42;;;;;;;9.27;2.50;;;;;;;5.98;61.53;99392.69;4975566;28;100485;-86
2023/02/02 04:02:07;;;;;;;9.67;2.40;;;;;;;6.01;61.14;99387.38;4985051;28;97013;-86
2023/02/02 04:04:33;;;;;;;8.80;2.37;;;;;;;5.79;61.60;99349.81;4990859;28;97120;-85
2023/02/02 04:07:00;;;;;;;8.27;2.23;;;;;;;5.94;61.88;99375.47;4956237;28;100369;-86
2023/02/02 04:09:26;;;;;;;10.03;2.10;;;;;;;5.94;61.62;99391.09;4974868;28;98153;-85
2023/02/02 04:11:52;;;;;;;8.47;2.10;;;;;;;5.93;61.65;99378.94;4991340;28;97243;-85
2023/02/02 04:14:17;;;;;;;11.40;2.60;;;;;;;5.84;61.77;99358.34;4971305;28;97414;-86
2023/02/02 04:16:43;;;;;;;12.87;2.10;;;;;;;5.92;61.64;99373.75;4972878;28;99957;-85
2023/02/02 04:19:09;;;;;;;9.27;2.23;;;;;;;5.94;61.55;99375.47;4980668;28;101085;-86
2023/02/02 04:21:34;;;;;;;9.00;2.00;;;;;;;5.79;61.74;99355.03;4957316;28;97374;-85
2023/02/02 04:24:00;;;;;;;9.53;1.83;;;;;;;5.98;61.94;99384.03;4956408;28;97404;-88
2023/02/02 04:26:26;;;;;;;4.93;1.40;;;;;;;6.00;61.68;99383.09;4956973;28;100954;-86
2023/02/02 04:28:52;;;;;;;7.63;2.47;;;;;;;5.95;61.58;99381.53;4973350;28;100934;-86
2023/02/02 04:31:18;;;;;;;10.73;2.00;;;;;;;6.00;61.47;99384.84;4954627;28;97712;-85
2023/02/02 04:33:43;;;;;;;12.07;1.90;;;;;;;6.03;61.36;99377.78;4990024;28;96927;-86
2023/02/02 04:36:09;;;;;;;12.00;2.10;;;;;;;6.05;61.19;99391.63;4972855;28;101200;-86
2023/02/02 04:38:35;;;;;;;11.77;1.90;;;;;;;6.04;61.44;99387.28;4976871;28;101761;-86
2023/02/02 04:41:10;;;;;;;11.13;1.87;;;;;;;5.82;61.02;99358.41;4959256;28;96768;-86
2023/02/02 04:43:36;;;;;;;11.13;2.00;;;;;;;5.98;61.23;99390.09;4993745;28;96987;-85
2023/02/02 04:46:02;;;;;;;8.33;1.90;;;;;;;6.02;61.10;99396.06;4993039;28;101245;-87
2023/02/02 04:48:29;;;;;;;6.77;2.10;;;;;;;6.01;61.45;99379.56;4957862;28;101501;-85
2023/02/02 04:51:03;;;;;;;8.80;2.20;;;;;;;6.00;61.27;99387.44;4974482;28;96744;-86
2023/02/02 04:53:29;;;;;;;9.40;1.87;;;;;;;5.90;61.55;99353.84;4974706;28;97159;-86
2023/02/02 04:55:55;;;;;;;9.60;2.07;;;;;;;6.00;61.12;99369.22;4975700;28;98873;-85
2023/02/02 04:58:20;;;;;;;7.37;1.57;;;;;;;5.91;61.10;99357.28;4959158;28;101364;-85
2023/02/02 05:00:46;;;;;;;10.50;2.37;;;;;;;6.02;61.11;99372.59;4959065;28;96770;-86
2023/02/02 05:03:12;;;;;;;12.83;3.33;;;;;;;5.96;61.03;99367.59;4971419;28;97256;-86
2023/02/02 05:05:37;;;;;;;11.27;2.43;;;;;;;6.02;61.15;99370.00;4972250;28;98143;-85
2023/02/02 05:08:03;;;;;;;6.60;2.47;;;;;;;6.09;61.54;99384.56;4975796;28;100915;-87
2023/02/02 05:10:29;;;;;;;10.77;2.47;;;;;;;6.09;61.35;99374.13;4956726;28;97295;-85
2023/02/02 05:12:55;;;;;;;7.45;2.08;;;;;;;6.08;61.07;99386.31;4957215;28;96975;-85
2023/02/02 05:15:21;;;;;;;7.30;1.90;;;;;;;6.09;60.97;99381.97;4952452;28;100079;-86
2023/02/02 05:17:47;;;;;;;8.00;1.87;;;;;;;6.05;61.01;99370.78;4961293;28;101114;-85
2023/02/02 05:20:13;;;;;;;9.63;2.23;;;;;;;6.07;60.94;99396.78;4974251;28;97349;-86
2023/02/02 05:22:39;;;;;;;8.30;2.30;;;;;;;6.04;61.12;99387.28;4964469;28;97035;-85
2023/02/02 05:25:06;;;;;;;8.67;2.03;;;;;;;5.98;61.37;99384.88;4955810;28;101958;-89
2023/02/02 05:27:31;;;;;;;12.37;2.00;;;;;;;6.10;61.13;99391.47;4969055;28;101548;-86
2023/02/02 05:29:57;;;;;;;10.37;2.00;;;;;;;6.06;61.08;99389.88;4980068;28;97368;-85
2023/02/02 05:32:22;;;;;;;8.77;2.47;;;;;;;6.07;61.50;99389.81;4958284;28;97313;-85
2023/02/02 05:34:48;;;;;;;10.47;2.07;;;;;;;6.02;61.68;99391.72;4982451;28;98030;-86
2023/02/02 05:37:13;;;;;;;10.70;2.83;;;;;;;5.96;61.51;99371.03;4970036;28;100675;-85
2023/02/02 05:39:39;;;;;;;6.83;2.40;;;;;;;6.12;61.47;99390.53;4967859;28;97089;-85
2023/02/02 05:42:05;;;;;;;8.07;2.30;;;;;;;5.99;61.34;99367.50;4992971;28;96979;-88
2023/02/02 05:44:30;;;;;;;13.90;3.40;;;;;;;5.99;61.22;99364.88;4975951;28;101646;-87
2023/02/02 05:46:56;;;;;;;12.37;2.80;;;;;;;6.06;61.18;99371.63;4974745;28;101920;-85
2023/02/02 05:49:21;;;;;;;11.00;2.80;;;;;;;6.14;61.47;99403.53;4974996;28;96926;-85
2023/02/02 05:51:53;;;;;;;11.90;2.57;;;;;;;6.19;61.49;99400.75;4956295;28;97503;-86
2023/02/02 05:54:19;;;;;;;15.73;3.30;;;;;;;6.03;61.35;99376.94;4952071;28;101334;-85
2023/02/02 05:56:50;;;;;;;12.50;2.63;;;;;;;6.07;60.96;99371.56;4956070;28;101421;-83
2023/02/02 05:59:16;;;;;;;9.07;3.00;;;;;;;6.15;61.53;99401.75;4968066;28;97588;-84
2023/02/02 06:01:43;;;;;;;12.20;3.60;;;;;;;6.15;61.68;99401.75;4994983;28;97216;-84
2023/02/02 06:04:08;;;;;;;8.47;2.00;;;;;;;5.97;61.28;99384.94;4991045;28;101670;-83
2023/02/02 06:06:34;;;;;;;7.80;2.00;;;;;;;6.20;61.55;99418.97;4982169;28;101384;-86
2023/02/02 06:09:00;;;;;;;10.53;2.50;;;;;;;6.15;61.75;99420.00;4980023;28;97192;-85
2023/02/02 06:11:26;;;;;;;10.27;2.23;;;;;;;6.20;61.53;99441.56;4985529;28;97276;-85
2023/02/02 06:13:51;;;;;;;6.18;1.73;;;;;;;5.90;61.69;99381.59;4984023;28;101299;-84
2023/02/02 06:16:17;;;;;;;7.07;2.10;;;;;;;6.11;61.88;99422.72;4958842;28;101558;-86
2023/02/02 06:18:43;;;;;;;7.67;2.20;;;;;;;6.13;61.91;99425.25;4963174;28;96907;-84
2023/02/02 06:21:10;;;;;;;7.70;2.43;;;;;;;6.16;62.05;99439.94;4980232;28;97601;-83
2023/02/02 06:23:35;;;;;;;11.73;2.23;;;;;;;6.05;62.08;99416.81;4958660;28;101523;-83
2023/02/02 06:26:02;;;;;;;7.90;2.10;;;;;;;6.14;62.06;99432.19;4958317;28;101053;-84
2023/02/02 06:28:29;;;;;;;9.77;2.10;;;;;;;6.19;62.62;99440.69;4974273;28;96836;-81
2023/02/02 06:30:55;;;;;;;6.30;2.33;;;;;;;6.22;62.63;99452.78;4994332;28;97150;-82
2023/02/02 06:33:20;;;;;;;7.18;2.03;;;;;;;6.15;63.01;99444.31;4966122;28;101345;-82
2023/02/02 06:35:46;;;;;;;8.47;2.17;;;;;;;6.18;63.21;99449.44;4969707;28;101775;-90
2023/02/02 06:38:12;;;;;;;6.60;2.17;;;;;;;6.21;63.16;99453.69;4972500;28;97437;-81
2023/02/02 06:40:37;;;;;;;5.40;1.80;;;;;;;6.22;63.47;99458.84;4989477;28;97369;-82
2023/02/02 06:43:03;;;;;;;9.70;3.00;;;;;;;6.15;63.91;99438.25;4980978;28;100141;-82
2023/02/02 06:45:29;;;;;;;8.17;2.37;;;;;;;5.80;64.51;99390.63;4962269;28;101708;-82
2023/02/02 06:48:02;;;;;;;11.27;2.70;;;;;;;6.11;64.66;99463.56;4987305;28;97344;-81
2023/02/02 06:50:28;;;;;;;8.70;2.70;;;;;;;6.08;64.97;99455.81;4970724;28;97281;-82
2023/02/02 06:52:53;;;;;;;6.33;2.10;;;;;;;6.02;64.92;99442.94;4970666;28;101151;-81
2023/02/02 06:55:19;;;;;;;7.63;2.38;;;;;;;6.13;65.24;99474.75;4970130;28;101078;-81
2023/02/02 06:57:45;;;;;;;9.97;2.40;;;;;;;6.11;65.01;99481.78;4986475;28;96731;-81
2023/02/02 07:00:11;;;;;;;10.57;2.67;;;;;;;6.14;65.11;99481.69;4986819;28;98545;-81
2023/02/02 07:02:37;;;;;;;8.73;2.87;;;;;;;6.09;64.82;99476.59;4980617;28;97893;-81
2023/02/02 07:05:03;;;;;;;8.00;2.23;;;;;;;6.16;64.98;99492.91;4988933;28;100824;-82
2023/02/02 07:07:33;;;;;;;11.30;2.93;;;;;;;6.13;64.86;99487.78;4971151;28;96814;-81
2023/02/02 07:09:59;;;;;;;5.23;1.77;;;;;;;6.13;65.06;99493.84;4954075;28;97071;-81
2023/02/02 07:12:25;;;;;;;8.17;2.40;;;;;;;6.12;64.95;99499.13;4969196;28;101719;-81
2023/02/02 07:14:52;;;;;;;10.23;2.33;;;;;;;6.09;64.85;99488.78;4955613;28;100426;-81
2023/02/02 07:17:17;;;;;;;5.40;1.60;;;;;;;6.06;65.06;99501.91;4951784;28;97375;-81
2023/02/02 07:19:43;;;;;;;9.63;2.23;;;;;;;6.06;65.30;99507.13;4955542;28;97138;-81
2023/02/02 07:22:09;;;;;;;6.77;2.20;;;;;;;6.07;65.17;99485.38;4954976;28;101095;-82
2023/02/02 07:24:36;;;;;;;7.63;2.33;;;;;;;6.11;65.14;99519.13;4973198;28;101921;-82
2023/02/02 07:27:05;;;;;;;5.30;1.70;;;;;;;6.09;65.33;99510.47;5005155;28;97380;-81
2023/02/02 07:29:31;;;;;;;9.13;2.30;;;;;;;6.10;65.45;99522.59;4972839;28;96849;-82
2023/02/02 07:31:57;;;;;;;5.97;1.70;;;;;;;6.07;65.69;99516.63;4958192;28;101526;-81
2023/02/02 07:34:22;;;;;;;7.10;2.00;;;;;;;6.08;65.29;99521.81;4987762;28;101883;-81
2023/02/02 07:36:48;;;;;;;8.87;2.10;;;;;;;6.10;65.93;99537.38;4963282;28;96943;-82
2023/02/02 07:39:13;;;;;;;6.60;1.40;;;;;;;6.11;65.32;99526.94;5006486;28;97144;-82
2023/02/02 07:41:39;;;;;;;5.87;2.00;;;;;;;6.15;65.60;99542.47;4999150;28;98434;-82
2023/02/02 07:44:15;;;;;;;5.07;1.50;;;;;;;6.16;65.43;99541.56;4992319;28;101287;-82
2023/02/02 07:46:42;;;;;;;6.63;1.77;;;;;;;6.02;65.32;99516.78;4986365;28;96685;-82
2023/02/02 07:49:15;;;;;;;8.00;1.70;;;;;;;6.14;65.64;99554.66;4951304;28;97099;-80
2023/02/02 07:51:41;;;;;;;8.13;2.73;;;;;;;6.14;65.42;99549.44;4972234;28;101683;-82
2023/02/02 07:54:07;;;;;;;6.07;1.87;;;;;;;5.96;65.47;99544.72;4955300;28;101074;-82
2023/02/02 07:56:32;;;;;;;4.43;1.43;;;;;;;6.13;65.68;99569.41;4981224;28;96981;-82
2023/02/02 07:58:58;;;;;;;6.07;2.07;;;;;;;6.07;65.61;99553.97;4989818;28;97097;-82
2023/02/02 08:01:25;;;;;;;6.37;2.10;;;;;;;6.10;65.32;99555.63;4998305;28;99314;-82
2023/02/02 08:03:55;;;;;;;5.43;1.53;;;;;;;6.26;65.45;99587.34;4955560;28;101542;-82
2023/02/02 08:06:34;;;;;;;5.10;1.70;;;;;;;6.24;65.40;99586.53;4970354;28;98008;-82
2023/02/02 08:09:01;;;;;;;5.53;1.80;;;;;;;6.28;65.20;99590.75;4997464;28;97068;-86
2023/02/02 08:11:27;;;;;;;6.90;1.53;;;;;;;6.33;65.23;99588.88;4964450;28;101159;-86
2023/02/02 08:13:55;;;;;;;5.77;1.63;;;;;;;6.37;65.19;99603.53;4993624;28;101889;-82
2023/02/02 08:16:21;;;;;;;7.47;1.83;;;;;;;6.43;64.99;99610.31;4978712;28;96865;-84
2023/02/02 08:18:47;;;;;;;12.63;2.50;;;;;;;6.42;65.35;99606.00;4979519;28;96905;-84
2023/02/02 08:21:13;;;;;;;5.70;1.70;;;;;;;6.39;65.00;99596.50;4978725;28;101044;-83
2023/02/02 08:23:40;;;;;;;8.67;2.00;;;;;;;6.53;65.14;99628.25;4998229;28;101699;-83
2023/02/02 08:26:11;;;;;;;7.07;1.60;;;;;;;6.50;64.98;99619.69;4985832;28;97157;-84
2023/02/02 08:28:38;;;;;;;5.85;1.63;;;;;;;6.57;64.64;99627.28;4984240;28;97389;-83
2023/02/02 08:31:08;;;;;;;4.97;1.63;;;;;;;6.58;64.74;99628.16;4994174;28;100781;-82
2023/02/02 08:33:34;;;;;;;7.73;2.00;;;;;;;6.62;64.67;99634.13;4967774;28;101856;-80
2023/02/02 08:35:59;;;;;;;4.93;1.70;;;;;;;6.65;64.61;99639.25;5010173;28;96806;-86
2023/02/02 08:38:25;;;;;;;5.17;1.73;;;;;;;6.65;64.52;99647.06;4990809;28;97692;-84
2023/02/02 08:40:51;;;;;;;4.23;2.13;;;;;;;6.69;64.55;99633.03;4976673;28;101109;-84
2023/02/02 08:43:17;;;;;;;4.33;1.60;;;;;;;6.58;64.48;99631.59;4997075;28;101248;-85
2023/02/02 08:45:42;;;;;;;2.93;1.13;;;;;;;6.74;64.51;99662.44;5003999;28;96694;-85
2023/02/02 08:48:08;;;;;;;4.90;1.40;;;;;;;6.75;64.43;99666.78;4966935;28;96815;-84
2023/02/02 08:50:34;;;;;;;5.20;1.40;;;;;;;6.72;64.27;99651.19;4965320;28;101390;-85
2023/02/02 08:52:59;;;;;;;3.40;1.10;;;;;;;6.63;64.08;99625.38;4979587;28;101476;-85
2023/02/02 08:55:25;;;;;;;3.40;1.27;;;;;;;7.03;64.60;99670.28;4964926;28;96892;-85
2023/02/02 08:57:51;;;;;;;5.73;1.30;;;;;;;7.20;63.92;99659.34;4964716;28;97022;-85
2023/02/02 09:00:17;;;;;;;5.82;1.35;;;;;;;7.53;62.95;99663.53;5006806;28;101276;-83
2023/02/02 09:02:43;;;;;;;3.33;1.40;;;;;;;7.80;61.86;99654.81;4993990;28;101141;-82
2023/02/02 09:05:08;;;;;;;5.27;1.57;;;;;;;7.89;61.33;99658.91;5010962;28;96771;-83
2023/02/02 09:07:34;;;;;;;3.28;1.30;;;;;;;7.97;60.65;99679.53;4976747;28;97124;-82
2023/02/02 09:09:59;;;;;;;2.30;1.40;;;;;;;7.88;60.20;99684.19;4960185;28;101884;-82
2023/02/02 09:12:25;;;;;;;3.50;1.15;;;;;;;7.85;60.16;99701.69;5009527;28;100935;-82
2023/02/02 09:14:51;;;;;;;2.22;1.20;;;;;;;7.76;60.36;99708.06;4997572;28;96938;-82
2023/02/02 09:17:16;;;;;;;3.00;1.17;;;;;;;7.70;60.50;99697.81;4981440;28;96858;-82
2023/02/02 09:19:42;;;;;;;5.13;1.63;;;;;;;7.91;60.20;99717.16;5025518;28;98460;-82
2023/02/02 09:22:07;;;;;;;2.60;1.10;;;;;;;8.12;60.03;99719.09;4968046;28;101519;-82
2023/02/02 09:24:33;;;;;;;4.20;1.80;;;;;;;8.11;59.75;99721.75;4963041;28;96976;-81
2023/02/02 09:26:59;;;;;;;2.72;1.33;;;;;;;8.00;59.24;99711.66;5012872;28;96852;-82
2023/02/02 09:29:24;;;;;;;3.22;1.17;;;;;;;8.00;59.30;99735.19;5003479;28;101773;-82
2023/02/02 09:31:50;;;;;;;2.33;1.25;;;;;;;7.93;59.84;99737.13;5000900;28;97967;-82
2023/02/02 09:34:15;;;;;;;3.15;1.10;;;;;;;7.84;59.29;99741.81;4959648;28;97269;-81
2023/02/02 09:36:42;;;;;;;2.75;1.38;;;;;;;7.87;59.19;99752.16;4991882;28;96895;-81
2023/02/02 09:39:11;;;;;;;4.28;1.65;;;;;;;7.67;59.54;99732.72;4976277;28;101684;-82
2023/02/02 09:41:36;;;;;;;5.43;2.20;;;;;;;7.71;59.37;99741.34;5011475;28;98504;-82
2023/02/02 09:44:11;;;;;;;5.00;1.40;;;;;;;7.81;59.34;99747.13;4990081;28;97249;-82
2023/02/02 09:46:46;;;;;;;5.15;1.60;;;;;;;7.86;59.01;99753.91;4983927;28;97220;-83
2023/02/02 09:49:16;;;;;;;3.63;1.13;;;;;;;7.76;59.38;99738.56;4964355;28;101529;-83
2023/02/02 09:52:04;;;;;;;7.20;2.00;;;;;;;7.70;58.67;99760.50;4995371;28;98930;-83
2023/02/02 09:54:38;;;;;;;3.63;1.67;;;;;;;7.67;58.75;99758.00;4993607;28;97914;-83
2023/02/02 09:57:07;;;;;;;3.22;0.93;;;;;;;7.60;59.00;99773.03;5006027;28;97204;-82
2023/02/02 09:59:36;;;;;;;2.47;0.80;;;;;;;7.57;58.87;99769.66;4980533;28;101988;-82
2023/02/02 10:02:23;;;;;;;3.92;1.15;;;;;;;7.53;59.16;99768.88;4977146;28;100908;-82
2023/02/02 10:04:54;;;;;;;4.30;1.60;;;;;;;7.63;58.89;99778.16;4992099;28;97152;-83
2023/02/02 10:07:33;;;;;;;6.30;1.50;;;;;;;7.62;59.23;99768.63;4975354;28;96933;-82
2023/02/02 10:10:02;;;;;;;8.40;3.08;;;;;;;7.69;59.17;99771.88;4973974;28;98530;-84
2023/02/02 10:12:42;;;;;;;4.93;2.40;;;;;;;7.69;59.37;99769.28;4988293;28;100826;-84
2023/02/02 10:15:17;;;;;;;5.05;1.60;;;;;;;7.80;59.63;99792.47;4968131;28;97246;-82
2023/02/02 10:18:10;;;;;;;10.73;2.40;;;;;;;7.69;59.45;99777.09;4979794;28;96935;-81
2023/02/02 10:20:43;;;;;;;8.68;2.63;;;;;;;7.74;59.72;99777.81;4990415;28;101304;-80
2023/02/02 10:23:27;;;;;;;5.47;2.40;;;;;;;7.75;60.04;99803.03;4979119;28;101382;-82
2023/02/02 10:26:02;;;;;;;8.68;2.58;;;;;;;7.71;60.92;99804.91;4995893;28;96924;-81
2023/02/02 10:28:57;;;;;;;5.70;2.58;;;;;;;7.56;61.17;99823.63;4974412;28;97077;-81
2023/02/02 10:31:57;;;;;;;7.15;2.55;;;;;;;7.49;62.55;99817.72;4969468;28;101698;-82
2023/02/02 10:34:35;;;;;;;4.38;2.13;;;;;;;7.41;63.31;99818.84;4994702;28;101212;-81
2023/02/02 10:37:22;;;;;;;5.90;2.28;;;;;;;7.18;63.46;99794.25;4993510;28;96887;-80
2023/02/02 10:40:22;;;;;;;8.32;2.40;;;;;;;7.30;63.68;99805.25;4983514;28;97543;-82
2023/02/02 10:45:47;;;;;;;4.03;2.13;;;;;;;7.43;64.12;99830.13;4977625;28;97578;-81
2023/02/02 10:48:14;;;;;;;5.80;2.13;;;;;;;7.42;64.26;99842.31;4968820;28;96805;-82
2023/02/02 10:50:47;;;;;;;2.72;1.35;;;;;;;7.40;64.23;99825.84;4991312;28;96772;-81
2023/02/02 10:53:14;;;;;;;6.55;1.73;;;;;;;7.28;64.11;99820.97;4967170;28;98221;-80
2023/02/02 10:55:52;;;;;;;3.72;1.58;;;;;;;7.42;64.31;99844.94;4969929;28;101196;-80
2023/02/02 10:58:31;;;;;;;8.23;1.75;;;;;;;7.39;64.37;99845.03;4963205;28;96885;-80
2023/02/02 11:01:00;;;;;;;5.38;1.92;;;;;;;7.42;64.72;99844.09;4989144;28;97378;-78
2023/02/02 11:03:30;;;;;;;6.97;1.67;;;;;;;7.39;64.33;99855.47;4971678;28;102139;-83
2023/02/02 11:08:44;;;;;;;4.13;1.60;;;;;;;7.50;64.45;99857.75;4989506;28;96868;-83
2023/02/02 11:11:12;;;;;;;5.18;1.45;;;;;;;7.40;64.74;99849.34;4991167;28;97193;-83
2023/02/02 11:13:44;;;;;;;5.60;1.70;;;;;;;7.49;64.43;99859.53;4987381;28;97434;-82
2023/02/02 11:16:13;;;;;;;7.07;2.35;;;;;;;7.49;64.60;99862.13;4971038;28;101263;-81
2023/02/02 11:18:38;;;;;;;7.72;2.15;;;;;;;7.46;65.17;99859.63;4998238;28;96857;-82
2023/02/02 11:21:23;;;;;;;7.72;3.70;;;;;;;7.54;64.57;99869.84;4972761;28;97165;-82
2023/02/02 11:23:59;;;;;;;9.40;3.65;;;;;;;7.53;64.57;99878.56;4988525;28;97878;-82
2023/02/02 11:26:25;;;;;;;5.70;1.90;;;;;;;7.50;64.64;99881.25;4971855;28;102045;-82
2023/02/02 11:28:53;;;;;;;4.10;1.60;;;;;;;7.38;64.62;99874.63;4975280;28;97342;-82
2023/02/02 11:31:33;;;;;;;4.53;1.38;;;;;;;7.21;64.30;99866.41;4964929;28;96917;-82
2023/02/02 11:34:17;;;;;;;6.32;1.80;;;;;;;7.32;64.42;99879.19;4964473;28;102144;-81
2023/02/02 11:37:11;;;;;;;6.22;2.00;;;;;;;7.33;64.54;99887.00;4974687;28;99190;-81
2023/02/02 11:39:39;;;;;;;6.43;1.63;;;;;;;7.37;64.76;99893.81;4975607;28;96913;-82
2023/02/02 11:42:14;;;;;;;5.00;2.40;;;;;;;7.29;64.48;99874.03;4952433;28;97388;-81
2023/02/02 11:44:43;;;;;;;5.85;2.00;;;;;;;7.19;64.66;99865.63;4967565;28;101532;-81
2023/02/02 11:47:17;;;;;;;7.10;2.15;;;;;;;7.35;64.76;99895.59;4965600;28;101091;-82
2023/02/02 11:49:43;;;;;;;4.53;1.90;;;;;;;7.40;64.96;99898.09;4996644;28;97704;-82
2023/02/02 11:52:16;;;;;;;5.45;2.05;;;;;;;7.26;64.85;99888.03;4980404;28;96835;-82
2023/02/02 11:54:47;;;;;;;5.55;2.30;;;;;;;7.33;64.96;99896.53;4966231;28;98050;-82
2023/02/02 11:57:16;;;;;;;9.43;2.70;;;;;;;7.28;65.05;99873.19;4954365;28;101536;-83
2023/02/02 11:59:43;;;;;;;5.30;1.77;;;;;;;7.45;64.84;99911.91;4964162;28;98084;-83